Time;durP1;ratioP1;P1;durP2;ratioP2;P2;SDS_P1;SDS_P2;PMS_P1;PMS_P2;Temp;Humidity;BMP_temperature;BMP_pressure;BME280_temperature;BME280_humidity;BME280_pressure;Samples;Min_cycle;Max_cycle;Signal;HPM_P1;HPM_P2
2024/01/05 00:00:47;;;;;;;1.10;1.10;;;7.60;99.90;;;;;;5025407;28;20426;-88
2024/01/05 00:03:12;;;;;;;0.93;0.93;;;7.60;99.90;;;;;;5053665;28;20049;-88
2024/01/05 00:05:39;;;;;;;1.00;1.00;;;7.40;99.90;;;;;;5023983;28;20051;-87
2024/01/05 00:08:05;;;;;;;1.10;1.10;;;7.20;99.90;;;;;;5058443;28;20058;-87
2024/01/05 00:10:31;;;;;;;1.20;1.20;;;7.40;99.90;;;;;;5042173;28;20044;-86
2024/01/05 00:12:57;;;;;;;1.15;1.15;;;7.40;99.90;;;;;;5043944;28;20167;-88
2024/01/05 00:15:23;;;;;;;1.08;1.08;;;7.40;99.90;;;;;;5038165;28;20040;-86
2024/01/05 00:17:48;;;;;;;1.00;1.00;;;7.50;99.90;;;;;;5042709;28;20040;-88
2024/01/05 00:20:14;;;;;;;1.00;1.00;;;7.10;99.90;;;;;;5023720;28;20464;-87
2024/01/05 00:22:40;;;;;;;1.20;1.20;;;7.20;99.90;;;;;;5029698;28;20119;-87
2024/01/05 00:25:07;;;;;;;1.00;1.00;;;7.10;99.90;;;;;;5046255;28;20105;-87
2024/01/05 00:27:32;;;;;;;1.15;1.15;;;7.60;99.90;;;;;;5039631;28;20665;-86
2024/01/05 00:29:58;;;;;;;1.10;1.10;;;7.10;99.90;;;;;;5042553;28;20049;-88
2024/01/05 00:32:24;;;;;;;1.17;1.17;;;7.20;99.90;;;;;;5046785;28;20699;-89
2024/01/05 00:34:49;;;;;;;1.10;1.10;;;7.40;99.90;;;;;;5048904;28;20072;-88
2024/01/05 00:37:15;;;;;;;1.10;1.10;;;7.30;99.90;;;;;;5026578;28;20040;-85
2024/01/05 00:39:41;;;;;;;1.10;1.10;;;7.50;99.90;;;;;;5027901;28;22469;-89
2024/01/05 00:42:07;;;;;;;1.17;1.17;;;7.60;99.90;;;;;;5044527;28;20052;-88
2024/01/05 00:44:33;;;;;;;1.13;1.13;;;7.10;99.90;;;;;;5024991;28;20683;-88
2024/01/05 00:46:59;;;;;;;1.10;1.10;;;7.30;99.90;;;;;;5044425;28;20051;-86
2024/01/05 00:49:24;;;;;;;1.10;1.10;;;7.00;99.90;;;;;;5031331;28;20036;-88
2024/01/05 00:51:50;;;;;;;1.00;1.00;;;7.10;99.90;;;;;;5024235;28;20053;-87
2024/01/05 00:54:16;;;;;;;1.10;1.10;;;7.10;99.90;;;;;;5022331;28;20149;-86
2024/01/05 00:56:42;;;;;;;1.00;1.00;;;7.50;99.90;;;;;;5039332;28;20375;-87
2024/01/05 00:59:07;;;;;;;1.00;1.00;;;7.20;99.90;;;;;;5042040;28;20045;-88
2024/01/05 01:01:33;;;;;;;1.00;1.00;;;7.00;99.90;;;;;;5039122;28;20858;-87
2024/01/05 01:03:59;;;;;;;1.10;1.10;;;7.00;99.90;;;;;;5028581;28;20360;-87
2024/01/05 01:06:25;;;;;;;1.10;1.10;;;7.30;99.90;;;;;;5038845;28;20123;-88
2024/01/05 01:08:51;;;;;;;1.00;1.00;;;7.30;99.90;;;;;;5026046;28;20064;-88
2024/01/05 01:11:17;;;;;;;1.10;1.10;;;7.40;99.90;;;;;;5023013;28;20184;-89
2024/01/05 01:13:44;;;;;;;1.00;1.00;;;7.50;99.90;;;;;;5042279;28;20157;-87
2024/01/05 01:16:11;;;;;;;1.00;1.00;;;7.20;99.90;;;;;;5045888;28;20041;-87
2024/01/05 01:18:38;;;;;;;1.10;1.10;;;7.30;99.90;;;;;;5026151;28;20048;-88
2024/01/05 01:21:07;;;;;;;1.00;1.00;;;7.00;99.90;;;;;;5042803;28;20049;-86
2024/01/05 01:23:33;;;;;;;1.13;1.13;;;7.00;99.90;;;;;;5021966;28;20097;-86
2024/01/05 01:25:59;;;;;;;1.00;1.00;;;7.40;99.90;;;;;;5020747;28;20545;-87
2024/01/05 01:28:24;;;;;;;1.10;1.10;;;7.00;99.90;;;;;;5036566;28;20048;-88
2024/01/05 01:30:50;;;;;;;1.15;1.15;;;7.10;99.90;;;;;;5037383;28;20045;-87
2024/01/05 01:33:16;;;;;;;1.00;1.00;;;7.10;99.90;;;;;;5019786;28;20048;-87
2024/01/05 01:35:41;;;;;;;1.10;1.10;;;7.20;99.90;;;;;;5024982;28;20677;-87
2024/01/05 01:38:08;;;;;;;1.00;1.00;;;7.40;99.90;;;;;;5040852;28;20037;-86
2024/01/05 01:40:34;;;;;;;1.02;1.02;;;6.90;99.90;;;;;;5035746;28;20138;-87
2024/01/05 01:42:59;;;;;;;1.00;1.00;;;7.00;99.90;;;;;;5037880;28;20048;-85
2024/01/05 01:45:25;;;;;;;1.00;1.00;;;7.40;99.90;;;;;;5057932;28;20036;-86
2024/01/05 01:47:52;;;;;;;1.00;1.00;;;7.40;99.90;;;;;;5043218;28;20086;-86
2024/01/05 01:50:18;;;;;;;0.90;0.90;;;7.00;99.90;;;;;;5028118;28;20131;-87
2024/01/05 01:52:47;;;;;;;1.10;1.10;;;7.10;99.90;;;;;;5043215;28;20367;-85
2024/01/05 01:55:15;;;;;;;1.17;1.10;;;7.10;99.90;;;;;;5045001;28;20102;-86
2024/01/05 01:57:41;;;;;;;1.00;1.00;;;7.50;99.90;;;;;;5042516;28;20078;-87
2024/01/05 02:00:08;;;;;;;1.00;1.00;;;7.20;99.90;;;;;;5042649;28;20056;-86
2024/01/05 02:02:35;;;;;;;1.40;1.30;;;7.30;99.90;;;;;;5044863;28;20056;-87
2024/01/05 02:05:01;;;;;;;1.00;1.00;;;6.90;99.90;;;;;;5044316;28;20049;-86
2024/01/05 02:07:28;;;;;;;1.00;1.00;;;7.20;99.90;;;;;;5024434;28;20052;-86
2024/01/05 02:09:54;;;;;;;1.00;1.00;;;7.60;99.90;;;;;;5060435;28;20122;-86
2024/01/05 02:12:19;;;;;;;1.00;1.00;;;7.50;99.90;;;;;;5046617;28;20080;-86
2024/01/05 02:14:45;;;;;;;1.00;1.00;;;6.90;99.90;;;;;;5044572;28;20072;-86
2024/01/05 02:17:30;;;;;;;0.90;0.90;;;7.40;99.90;;;;;;5027097;28;20045;-87
2024/01/05 02:19:58;;;;;;;1.00;1.00;;;7.00;99.90;;;;;;5045072;28;20044;-87
2024/01/05 02:22:29;;;;;;;1.00;1.00;;;7.00;99.90;;;;;;5048399;28;20127;-87
2024/01/05 02:24:58;;;;;;;1.02;1.02;;;6.90;99.90;;;;;;5041297;28;20111;-86
2024/01/05 02:27:25;;;;;;;1.00;1.00;;;7.30;99.90;;;;;;5028448;28;20040;-87
2024/01/05 02:29:50;;;;;;;1.10;1.10;;;7.10;99.90;;;;;;5063743;28;20405;-86
2024/01/05 02:32:17;;;;;;;1.00;1.00;;;7.60;99.90;;;;;;5032126;28;20054;-86
2024/01/05 02:34:43;;;;;;;1.00;1.00;;;7.20;99.90;;;;;;5060975;28;20087;-86
2024/01/05 02:37:09;;;;;;;1.10;1.10;;;7.00;99.90;;;;;;5046200;28;20048;-87
2024/01/05 02:39:35;;;;;;;1.00;1.00;;;7.90;99.90;;;;;;5030191;28;20048;-87
2024/01/05 02:42:00;;;;;;;1.00;1.00;;;7.80;99.90;;;;;;5048504;28;20406;-87
2024/01/05 02:44:26;;;;;;;1.10;1.10;;;7.30;99.90;;;;;;5044268;28;20040;-86
2024/01/05 02:46:52;;;;;;;1.00;1.00;;;7.60;99.90;;;;;;5060439;28;20054;-85
2024/01/05 02:49:17;;;;;;;1.00;1.00;;;7.50;99.90;;;;;;5045734;28;20040;-86
2024/01/05 02:51:43;;;;;;;1.10;1.10;;;7.00;99.90;;;;;;5045946;28;20040;-86
2024/01/05 02:54:09;;;;;;;1.00;1.00;;;7.90;99.90;;;;;;5032207;28;20045;-86
2024/01/05 02:56:35;;;;;;;1.10;1.10;;;7.80;99.90;;;;;;5032747;28;20048;-85
2024/01/05 02:59:03;;;;;;;1.40;1.30;;;6.90;99.90;;;;;;5024319;28;20037;-86
2024/01/05 03:01:29;;;;;;;1.10;1.10;;;7.00;99.90;;;;;;5038175;28;20049;-85
2024/01/05 03:03:54;;;;;;;1.08;1.08;;;6.90;99.90;;;;;;5026793;28;20067;-86
2024/01/05 03:06:20;;;;;;;1.10;1.10;;;7.20;99.90;;;;;;5036105;28;20036;-86
2024/01/05 03:08:46;;;;;;;1.20;1.20;;;8.00;99.90;;;;;;5014140;28;20099;-88
2024/01/05 03:11:12;;;;;;;1.20;1.20;;;7.90;99.90;;;;;;5040973;28;20074;-87
2024/01/05 03:13:38;;;;;;;1.13;1.13;;;7.20;99.90;;;;;;5040889;28;20071;-85
2024/01/05 03:16:05;;;;;;;1.20;1.20;;;7.80;99.90;;;;;;5045759;28;20040;-88
2024/01/05 03:18:31;;;;;;;1.13;1.13;;;8.00;99.90;;;;;;5043751;28;20050;-89
2024/01/05 03:20:57;;;;;;;1.00;1.00;;;7.10;99.90;;;;;;5027620;28;20131;-87
2024/01/05 03:23:22;;;;;;;1.10;1.10;;;8.00;99.90;;;;;;5045944;28;21000;-86
2024/01/05 03:25:48;;;;;;;1.00;1.00;;;7.10;99.90;;;;;;5022616;28;20078;-88
2024/01/05 03:28:14;;;;;;;1.20;1.20;;;8.00;99.90;;;;;;5033053;28;20041;-88
2024/01/05 03:30:42;;;;;;;1.00;1.00;;;7.00;99.90;;;;;;5044312;28;20114;-89
2024/01/05 03:33:07;;;;;;;1.20;1.20;;;7.10;99.90;;;;;;5047137;28;20552;-86
2024/01/05 03:35:33;;;;;;;1.20;1.20;;;7.70;99.90;;;;;;5030830;28;20044;-88
2024/01/05 03:37:59;;;;;;;1.20;1.20;;;7.90;99.90;;;;;;5028992;28;20052;-88
2024/01/05 03:40:25;;;;;;;1.00;1.00;;;7.10;99.90;;;;;;5058488;28;20071;-88
2024/01/05 03:42:50;;;;;;;1.10;1.10;;;8.00;99.90;;;;;;5031032;28;20128;-87
2024/01/05 03:45:16;;;;;;;1.10;1.10;;;7.90;99.90;;;;;;5035984;28;20076;-88
2024/01/05 03:47:42;;;;;;;1.00;1.00;;;7.20;99.90;;;;;;5027747;28;20421;-87
2024/01/05 03:50:08;;;;;;;1.10;1.10;;;7.20;99.90;;;;;;5039707;28;20104;-88
2024/01/05 03:52:34;;;;;;;1.05;1.05;;;8.00;99.90;;;;;;5041495;28;20048;-87
2024/01/05 03:55:01;;;;;;;1.00;1.00;;;8.10;99.90;;;;;;5046835;28;20044;-87
2024/01/05 03:57:27;;;;;;;1.10;1.10;;;7.80;99.90;;;;;;5045089;28;20037;-88
2024/01/05 03:59:53;;;;;;;1.20;1.20;;;8.10;99.90;;;;;;5032568;28;20060;-88
2024/01/05 04:02:19;;;;;;;1.10;1.10;;;8.00;99.90;;;;;;5034422;28;20135;-88
2024/01/05 04:04:45;;;;;;;1.00;1.00;;;7.90;99.90;;;;;;5049658;28;20041;-88
2024/01/05 04:07:10;;;;;;;1.00;1.00;;;7.30;99.90;;;;;;5048668;28;20036;-87
2024/01/05 04:09:36;;;;;;;1.20;1.20;;;7.30;99.90;;;;;;5044548;28;21273;-88
2024/01/05 04:12:02;;;;;;;1.20;1.20;;;8.00;99.90;;;;;;5037708;28;20040;-88
2024/01/05 04:14:28;;;;;;;1.38;1.35;;;8.20;99.90;;;;;;5023082;28;20559;-88
2024/01/05 04:16:54;;;;;;;1.00;1.00;;;8.20;99.90;;;;;;5046392;28;20052;-87
2024/01/05 04:19:20;;;;;;;1.30;1.30;;;7.50;99.90;;;;;;5028814;28;20064;-87
2024/01/05 04:21:46;;;;;;;1.10;1.10;;;8.20;99.90;;;;;;5021323;28;20510;-88
2024/01/05 04:24:12;;;;;;;1.10;1.10;;;7.90;99.90;;;;;;5048335;28;20135;-88
2024/01/05 04:26:38;;;;;;;1.00;1.00;;;8.20;99.90;;;;;;5043779;28;20135;-87
2024/01/05 04:29:03;;;;;;;1.00;1.00;;;7.50;99.90;;;;;;5037009;28;20060;-89
2024/01/05 04:31:29;;;;;;;1.30;1.30;;;8.10;99.90;;;;;;5023823;28;20099;-89
2024/01/05 04:33:55;;;;;;;1.00;1.00;;;7.60;99.90;;;;;;5023952;28;20054;-88
2024/01/05 04:36:21;;;;;;;1.30;1.30;;;8.10;99.90;;;;;;5059579;28;20194;-87
2024/01/05 04:38:47;;;;;;;1.33;1.33;;;8.20;99.90;;;;;;5043104;28;20054;-88
2024/01/05 04:41:14;;;;;;;1.00;1.00;;;7.50;99.90;;;;;;5043875;28;20047;-89
2024/01/05 04:43:40;;;;;;;1.10;1.10;;;7.60;99.90;;;;;;5042581;28;20101;-88
2024/01/05 04:46:07;;;;;;;1.25;1.20;;;7.50;99.90;;;;;;5031591;28;20040;-87
2024/01/05 04:48:33;;;;;;;1.13;1.13;;;8.20;99.90;;;;;;5031912;28;20053;-87
2024/01/05 04:51:02;;;;;;;1.38;1.35;;;7.50;99.90;;;;;;5031917;28;20143;-87
2024/01/05 04:53:28;;;;;;;1.23;1.23;;;8.20;99.90;;;;;;5030297;28;20044;-90
2024/01/05 04:55:54;;;;;;;1.20;1.20;;;7.60;99.90;;;;;;5048005;28;20094;-89
2024/01/05 04:58:20;;;;;;;1.35;1.35;;;7.60;99.90;;;;;;5031772;28;20050;-89
2024/01/05 05:00:46;;;;;;;1.30;1.30;;;8.30;99.90;;;;;;5034856;28;20486;-88
2024/01/05 05:03:15;;;;;;;1.10;1.10;;;8.30;99.90;;;;;;5042938;28;20043;-89
2024/01/05 05:05:41;;;;;;;1.30;1.30;;;8.30;99.90;;;;;;5032787;28;20044;-89
2024/01/05 05:08:13;;;;;;;1.10;1.10;;;8.00;99.90;;;;;;5032596;28;20497;-89
2024/01/05 05:10:39;;;;;;;1.30;1.30;;;7.70;99.90;;;;;;5046051;28;20466;-88
2024/01/05 05:13:04;;;;;;;1.20;1.20;;;8.30;99.90;;;;;;5047540;28;20110;-88
2024/01/05 05:15:30;;;;;;;1.10;1.10;;;7.70;99.90;;;;;;5030501;28;20087;-88
2024/01/05 05:17:56;;;;;;;1.33;1.33;;;7.70;99.90;;;;;;5045937;28;20076;-88
2024/01/05 05:20:22;;;;;;;1.08;1.08;;;8.30;99.90;;;;;;5044015;28;20072;-89
2024/01/05 05:22:48;;;;;;;1.10;1.10;;;7.70;99.90;;;;;;5028648;28;20048;-88
2024/01/05 05:25:14;;;;;;;1.10;1.10;;;7.70;99.90;;;;;;5046419;28;20417;-89
2024/01/05 05:27:40;;;;;;;1.10;1.10;;;8.10;99.90;;;;;;5047268;28;20053;-88
2024/01/05 05:30:08;;;;;;;1.30;1.30;;;7.80;99.90;;;;;;5032448;28;20494;-87
2024/01/05 05:32:33;;;;;;;1.10;1.10;;;8.10;99.90;;;;;;5032492;28;20147;-88
2024/01/05 05:34:59;;;;;;;1.42;1.40;;;8.30;99.90;;;;;;5030208;28;20209;-86
2024/01/05 05:37:25;;;;;;;1.23;1.23;;;8.20;99.90;;;;;;5026857;28;20059;-88
2024/01/05 05:39:51;;;;;;;1.00;1.00;;;8.40;99.90;;;;;;5024651;28;20188;-87
2024/01/05 05:42:17;;;;;;;1.30;1.30;;;8.10;99.90;;;;;;5025518;28;20560;-87
2024/01/05 05:44:42;;;;;;;1.00;1.00;;;8.10;99.90;;;;;;5045479;28;20502;-88
2024/01/05 05:47:09;;;;;;;1.23;1.23;;;7.90;99.90;;;;;;5042672;28;20040;-89
2024/01/05 05:49:35;;;;;;;1.30;1.30;;;8.50;99.90;;;;;;5032808;28;20127;-89
2024/01/05 05:52:00;;;;;;;1.10;1.10;;;8.50;99.90;;;;;;5033792;28;20127;-89
2024/01/05 05:54:26;;;;;;;1.10;1.10;;;8.10;99.90;;;;;;5030679;28;20048;-89
2024/01/05 05:56:52;;;;;;;1.10;1.10;;;8.40;99.90;;;;;;5046558;28;20186;-88
2024/01/05 05:59:17;;;;;;;1.20;1.20;;;8.60;99.90;;;;;;5029856;28;20075;-87
2024/01/05 06:01:44;;;;;;;1.10;1.10;;;8.60;99.90;;;;;;5031586;28;20044;-89
2024/01/05 06:04:13;;;;;;;1.30;1.30;;;8.00;99.90;;;;;;5047224;28;20048;-88
2024/01/05 06:06:39;;;;;;;1.00;1.00;;;8.70;99.90;;;;;;5047707;28;20078;-87
2024/01/05 06:09:05;;;;;;;1.20;1.20;;;8.10;99.90;;;;;;5044079;28;20079;-90
2024/01/05 06:11:31;;;;;;;1.30;1.30;;;8.10;99.90;;;;;;5046560;28;20530;-89
2024/01/05 06:13:57;;;;;;;1.27;1.27;;;8.60;99.90;;;;;;5048056;28;20115;-90
2024/01/05 06:16:23;;;;;;;1.10;1.10;;;8.70;99.90;;;;;;5048098;28;20044;-89
2024/01/05 06:18:49;;;;;;;1.10;1.10;;;8.90;99.90;;;;;;5030959;28;20072;-88
2024/01/05 06:21:14;;;;;;;1.50;1.40;;;8.80;99.90;;;;;;5050383;28;20482;-87
2024/01/05 06:23:40;;;;;;;1.77;1.67;;;8.40;99.90;;;;;;5031723;28;20044;-89
2024/01/05 06:26:06;;;;;;;1.33;1.33;;;8.80;99.90;;;;;;5048493;28;20045;-89
2024/01/05 06:28:32;;;;;;;1.00;1.00;;;8.50;99.90;;;;;;5029318;28;20397;-87
2024/01/05 06:30:57;;;;;;;1.20;1.20;;;9.00;99.90;;;;;;5031867;28;20063;-88
2024/01/05 06:33:23;;;;;;;1.50;1.40;;;8.60;99.90;;;;;;5049358;28;20075;-88
2024/01/05 06:35:49;;;;;;;1.40;1.38;;;8.90;99.90;;;;;;5055001;28;20068;-87
2024/01/05 06:38:15;;;;;;;1.48;1.42;;;8.40;99.90;;;;;;5051390;28;20498;-88
2024/01/05 06:40:41;;;;;;;1.30;1.30;;;8.50;99.90;;;;;;5050880;28;20051;-88
2024/01/05 06:43:07;;;;;;;1.00;1.00;;;9.00;99.90;;;;;;5050289;28;20056;-88
2024/01/05 06:45:32;;;;;;;1.00;1.00;;;8.40;99.90;;;;;;5035935;28;20037;-88
2024/01/05 06:47:58;;;;;;;1.58;1.48;;;9.00;99.90;;;;;;5048748;28;20128;-87
2024/01/05 06:50:24;;;;;;;1.55;1.45;;;8.60;99.90;;;;;;5053132;28;20083;-89
2024/01/05 06:52:50;;;;;;;1.58;1.48;;;9.10;99.90;;;;;;5053204;28;20075;-88
2024/01/05 06:55:16;;;;;;;1.10;1.10;;;9.00;99.90;;;;;;5049272;28;20036;-88
2024/01/05 06:57:42;;;;;;;1.30;1.30;;;8.40;99.90;;;;;;5045337;28;20047;-89
2024/01/05 07:00:10;;;;;;;1.63;1.52;;;9.00;99.90;;;;;;5062371;28;20048;-86
2024/01/05 07:02:36;;;;;;;1.45;1.42;;;8.60;99.90;;;;;;5051025;28;20055;-89
2024/01/05 07:05:05;;;;;;;1.10;1.10;;;8.50;99.90;;;;;;5033134;28;20378;-89
2024/01/05 07:07:31;;;;;;;1.52;1.42;;;9.10;99.90;;;;;;5035705;28;20044;-89
2024/01/05 07:09:56;;;;;;;1.65;1.55;;;8.80;99.90;;;;;;5034214;28;20434;-86
2024/01/05 07:12:23;;;;;;;1.25;1.25;;;8.60;99.90;;;;;;5051191;28;20131;-88
2024/01/05 07:14:48;;;;;;;1.55;1.45;;;8.70;99.90;;;;;;5037706;28;20036;-90
2024/01/05 07:17:14;;;;;;;1.73;1.63;;;9.20;99.90;;;;;;5051676;28;20393;-89
2024/01/05 07:19:40;;;;;;;1.65;1.55;;;9.30;99.90;;;;;;5053157;28;20071;-89
2024/01/05 07:22:09;;;;;;;1.63;1.52;;;8.70;99.90;;;;;;5036098;28;20055;-89
2024/01/05 07:24:37;;;;;;;1.20;1.20;;;9.30;99.90;;;;;;5041800;28;20067;-90
2024/01/05 07:27:04;;;;;;;1.10;1.10;;;8.70;99.90;;;;;;5036318;28;20045;-88
2024/01/05 07:29:29;;;;;;;1.65;1.55;;;9.20;99.90;;;;;;5037963;28;20083;-91
2024/01/05 07:31:55;;;;;;;1.55;1.45;;;9.30;99.90;;;;;;5044918;28;20083;-88
2024/01/05 07:34:21;;;;;;;1.63;1.52;;;9.40;99.90;;;;;;5049469;28;20048;-88
2024/01/05 07:36:47;;;;;;;1.63;1.52;;;8.80;99.90;;;;;;5054227;28;20043;-90
2024/01/05 07:39:13;;;;;;;1.63;1.52;;;9.20;99.90;;;;;;5036229;28;20478;-89
2024/01/05 07:41:39;;;;;;;2.15;2.05;;;8.90;99.90;;;;;;5054555;28;20051;-88
2024/01/05 07:44:05;;;;;;;1.10;1.10;;;8.90;99.90;;;;;;5025142;28;20482;-90
2024/01/05 07:46:31;;;;;;;1.60;1.50;;;9.40;99.90;;;;;;5035425;28;20055;-87
2024/01/05 07:48:57;;;;;;;1.65;1.55;;;9.50;99.90;;;;;;5046887;28;20059;-89
2024/01/05 07:51:23;;;;;;;1.20;1.20;;;9.60;99.90;;;;;;5041879;28;20045;-90
2024/01/05 07:53:49;;;;;;;1.30;1.30;;;9.20;99.90;;;;;;5033285;28;21745;-89
2024/01/05 07:56:18;;;;;;;1.25;1.25;;;9.20;99.90;;;;;;5046713;28;20127;-89
2024/01/05 07:58:46;;;;;;;1.30;1.30;;;9.50;99.90;;;;;;5034947;28;20622;-89
2024/01/05 08:01:18;;;;;;;1.63;1.52;;;9.30;99.90;;;;;;5058930;28;20052;-90
2024/01/05 08:03:45;;;;;;;1.70;1.60;;;9.80;99.90;;;;;;5045127;28;20127;-87
2024/01/05 08:06:18;;;;;;;1.50;1.40;;;9.40;99.90;;;;;;5056338;28;20079;-90
2024/01/05 08:08:45;;;;;;;2.13;2.03;;;9.90;99.90;;;;;;5040609;28;20048;-90
2024/01/05 08:11:11;;;;;;;1.75;1.65;;;9.90;99.90;;;;;;5046597;28;20491;-90
2024/01/05 08:13:37;;;;;;;1.92;1.83;;;9.80;99.90;;;;;;5043979;28;20049;-87
2024/01/05 08:16:03;;;;;;;1.92;1.83;;;9.80;99.90;;;;;;5049956;28;20042;-89
2024/01/05 08:18:29;;;;;;;1.90;1.80;;;9.80;99.90;;;;;;5024578;28;20040;-90
2024/01/05 08:20:55;;;;;;;1.83;1.73;;;9.90;99.90;;;;;;5028324;28;20060;-88
2024/01/05 08:23:20;;;;;;;1.98;1.88;;;10.00;99.90;;;;;;5025058;28;20433;-87
2024/01/05 08:25:47;;;;;;;2.28;2.17;;;9.80;99.90;;;;;;5035420;28;20037;-89
2024/01/05 08:28:13;;;;;;;2.00;1.90;;;9.90;99.90;;;;;;5029402;28;20063;-89
2024/01/05 08:30:39;;;;;;;1.80;1.70;;;10.10;99.90;;;;;;5020567;28;20048;-88
2024/01/05 08:33:06;;;;;;;2.08;1.98;;;9.80;99.90;;;;;;5050885;28;20687;-88
2024/01/05 08:35:32;;;;;;;2.10;2.00;;;9.90;99.90;;;;;;5058319;28;20043;-88
2024/01/05 08:37:58;;;;;;;2.00;1.90;;;10.10;99.90;;;;;;5064205;28;20041;-88
2024/01/05 08:40:26;;;;;;;2.03;1.92;;;10.20;99.90;;;;;;5048361;28;20075;-87
2024/01/05 08:42:54;;;;;;;1.80;1.70;;;10.10;99.90;;;;;;5047540;28;20078;-87
2024/01/05 08:45:20;;;;;;;3.83;3.65;;;10.20;99.90;;;;;;5033263;28;20055;-87
2024/01/05 08:47:46;;;;;;;2.00;1.90;;;10.10;99.90;;;;;;5047836;28;20044;-88
2024/01/05 08:50:12;;;;;;;2.13;2.03;;;10.10;99.90;;;;;;5050484;28;20778;-89
2024/01/05 08:52:38;;;;;;;2.10;2.00;;;10.30;99.90;;;;;;5029841;28;20729;-88
2024/01/05 08:55:04;;;;;;;2.10;2.00;;;10.40;99.90;;;;;;5046165;28;20044;-87
2024/01/05 08:57:32;;;;;;;2.42;2.33;;;10.50;99.90;;;;;;5028444;28;20122;-87
2024/01/05 08:59:57;;;;;;;1.88;1.77;;;10.20;99.90;;;;;;5030067;28;20052;-88
2024/01/05 09:02:23;;;;;;;2.30;2.20;;;10.60;99.90;;;;;;5041985;28;20044;-88
2024/01/05 09:04:49;;;;;;;2.20;2.10;;;10.30;99.90;;;;;;5042101;28;20048;-88
2024/01/05 09:07:14;;;;;;;2.20;2.10;;;10.60;99.90;;;;;;5047719;28;20448;-88
2024/01/05 09:09:40;;;;;;;2.17;2.08;;;10.30;99.90;;;;;;5031670;28;20131;-89
2024/01/05 09:12:08;;;;;;;2.22;2.13;;;10.40;99.90;;;;;;5046385;28;20056;-88
2024/01/05 09:14:33;;;;;;;2.30;2.20;;;10.30;99.90;;;;;;5034493;28;20498;-86
2024/01/05 09:16:59;;;;;;;2.40;2.30;;;10.60;99.90;;;;;;5045469;28;20043;-88
2024/01/05 09:19:25;;;;;;;2.30;2.20;;;10.30;99.90;;;;;;5032921;28;20170;-87
2024/01/05 09:21:51;;;;;;;2.42;2.33;;;10.50;99.90;;;;;;5049315;28;20083;-89
2024/01/05 09:24:16;;;;;;;2.30;2.20;;;10.30;99.90;;;;;;5047844;28;20044;-89
2024/01/05 09:26:43;;;;;;;2.40;2.30;;;10.30;99.90;;;;;;5048409;28;20041;-89
2024/01/05 09:29:09;;;;;;;2.85;2.65;;;10.50;99.90;;;;;;5048405;28;20094;-88
2024/01/05 09:31:35;;;;;;;2.80;2.60;;;10.40;99.90;;;;;;5027248;28;20083;-87
2024/01/05 09:34:01;;;;;;;2.60;2.50;;;10.40;99.90;;;;;;5022038;28;20098;-86
2024/01/05 09:36:26;;;;;;;2.70;2.60;;;10.50;99.90;;;;;;5058320;28;20043;-87
2024/01/05 09:38:52;;;;;;;2.55;2.45;;;10.30;99.90;;;;;;5032533;28;20048;-86
2024/01/05 09:41:18;;;;;;;3.00;2.80;;;10.60;99.90;;;;;;5029773;28;20044;-88
2024/01/05 09:43:48;;;;;;;2.78;2.60;;;10.40;99.90;;;;;;5044408;28;20075;-88
2024/01/05 09:46:15;;;;;;;2.97;2.78;;;10.70;99.90;;;;;;5044694;28;20060;-91
2024/01/05 09:48:40;;;;;;;2.92;2.72;;;10.70;99.90;;;;;;5033388;28;20063;-87
2024/01/05 09:51:07;;;;;;;3.20;3.00;;;10.60;99.90;;;;;;5049912;28;20118;-88
2024/01/05 09:53:33;;;;;;;2.95;2.75;;;10.70;99.90;;;;;;5047665;28;20098;-89
2024/01/05 09:56:00;;;;;;;3.00;2.80;;;10.80;99.90;;;;;;5030746;28;20048;-89
2024/01/05 09:58:26;;;;;;;3.25;3.05;;;10.50;99.90;;;;;;5032589;28;20052;-89
2024/01/05 10:00:54;;;;;;;3.22;3.03;;;10.60;99.90;;;;;;5030715;28;20052;-90
2024/01/05 10:03:22;;;;;;;3.30;3.10;;;10.60;99.90;;;;;;5033250;28;20105;-90
2024/01/05 10:05:56;;;;;;;3.60;3.40;;;10.70;99.90;;;;;;5032221;28;20047;-90
2024/01/05 10:08:22;;;;;;;3.85;3.65;;;10.70;99.90;;;;;;5049845;28;20045;-88
2024/01/05 10:10:53;;;;;;;3.05;2.85;;;10.80;99.90;;;;;;5047458;28;20072;-88
2024/01/05 10:13:19;;;;;;;3.28;3.08;;;10.80;99.90;;;;;;5036600;28;20049;-89
2024/01/05 10:16:16;;;;;;;3.50;3.30;;;11.00;99.90;;;;;;5048889;28;20055;-90
2024/01/05 10:18:42;;;;;;;3.22;3.03;;;10.90;99.90;;;;;;5008792;28;20053;-89
2024/01/05 10:21:11;;;;;;;3.38;3.17;;;10.90;99.90;;;;;;5051291;28;20063;-90
2024/01/05 10:23:43;;;;;;;4.35;4.05;;;10.80;99.90;;;;;;5037799;28;20052;-90
2024/01/05 10:26:17;;;;;;;3.72;3.53;;;10.90;99.90;;;;;;5053695;28;20044;-93
2024/01/05 10:28:42;;;;;;;4.10;3.90;;;10.80;99.90;;;;;;5038210;28;20059;-93
2024/01/05 10:31:16;;;;;;;3.30;3.10;;;11.00;99.90;;;;;;5040464;28;20036;-93
2024/01/05 10:33:55;;;;;;;3.30;3.10;;;10.90;99.90;;;;;;5050908;28;20048;-92
2024/01/05 10:36:26;;;;;;;3.20;3.00;;;11.00;99.90;;;;;;5052341;28;20045;-92
2024/01/05 10:38:52;;;;;;;3.88;3.67;;;11.00;99.90;;;;;;5038592;28;20074;-92
2024/01/05 10:41:23;;;;;;;3.30;3.10;;;10.90;99.90;;;;;;5048000;28;20036;-88
2024/01/05 10:43:49;;;;;;;3.75;3.55;;;10.90;99.90;;;;;;5051043;28;20067;-92
2024/01/05 10:46:18;;;;;;;3.10;2.90;;;10.90;99.90;;;;;;5034550;28;20068;-89
2024/01/05 10:48:44;;;;;;;3.47;3.28;;;11.00;99.90;;;;;;5034970;28;20056;-89
2024/01/05 10:51:22;;;;;;;3.20;3.00;;;11.00;99.90;;;;;;5032565;28;20041;-90
2024/01/05 10:53:49;;;;;;;3.45;3.25;;;10.90;99.90;;;;;;5038314;28;20494;-92
2024/01/05 10:56:19;;;;;;;3.13;2.92;;;10.90;99.90;;;;;;5035496;28;20560;-91
2024/01/05 10:58:48;;;;;;;3.03;2.83;;;11.00;99.90;;;;;;5037583;28;20075;-92
2024/01/05 11:01:17;;;;;;;3.45;3.25;;;11.00;99.90;;;;;;5052868;28;20047;-92
2024/01/05 11:03:50;;;;;;;3.40;3.20;;;11.00;99.90;;;;;;5054427;28;20049;-93
2024/01/05 11:06:17;;;;;;;3.45;3.25;;;10.90;99.90;;;;;;5034960;28;20117;-91
2024/01/05 11:09:21;;;;;;;2.90;2.70;;;11.00;99.90;;;;;;5049157;28;20055;-92
2024/01/05 11:12:09;;;;;;;3.75;3.55;;;11.00;99.90;;;;;;5053053;28;20048;-92
2024/01/05 11:15:04;;;;;;;3.75;3.55;;;11.10;99.90;;;;;;5056811;28;20128;-93
2024/01/05 11:17:50;;;;;;;3.20;3.00;;;11.00;99.90;;;;;;5037268;28;20125;-92
2024/01/05 11:20:37;;;;;;;3.08;2.88;;;11.00;99.90;;;;;;5051662;28;20127;-93
2024/01/05 11:23:03;;;;;;;3.00;2.80;;;10.90;99.90;;;;;;5036321;28;20038;-92
2024/01/05 11:25:29;;;;;;;3.35;3.15;;;10.90;99.90;;;;;;5033781;28;20072;-92
2024/01/05 11:27:55;;;;;;;3.25;3.05;;;10.80;99.90;;;;;;5036979;28;20471;-92
2024/01/05 11:30:45;;;;;;;3.45;3.25;;;10.80;99.90;;;;;;5034801;28;20101;-92
2024/01/05 11:33:46;;;;;;;3.00;2.80;;;10.80;99.90;;;;;;5052339;28;20045;-92
2024/01/05 11:36:12;;;;;;;3.05;2.85;;;10.80;99.90;;;;;;5053535;28;20036;-91
2024/01/05 11:38:47;;;;;;;3.40;3.20;;;10.80;99.90;;;;;;5053900;28;20131;-92
2024/01/05 11:41:19;;;;;;;3.25;3.05;;;11.00;99.90;;;;;;5056205;28;20048;-92
2024/01/05 11:43:45;;;;;;;3.00;2.80;;;10.90;99.90;;;;;;5035224;28;20044;-92
2024/01/05 11:46:12;;;;;;;2.97;2.78;;;11.00;99.90;;;;;;5037638;28;20048;-94
2024/01/05 11:48:38;;;;;;;3.90;3.70;;;11.00;99.90;;;;;;5056270;28;20127;-91
2024/01/05 11:51:12;;;;;;;3.45;3.25;;;11.00;99.90;;;;;;5054186;28;20130;-91
2024/01/05 11:53:38;;;;;;;3.40;3.20;;;11.00;99.90;;;;;;5042094;28;20555;-92
2024/01/05 11:56:17;;;;;;;2.90;2.70;;;11.00;99.90;;;;;;5058506;28;20028;-91
2024/01/05 11:58:46;;;;;;;3.40;3.20;;;11.00;99.90;;;;;;5034748;28;20127;-89
2024/01/05 12:01:13;;;;;;;3.33;3.13;;;11.10;99.90;;;;;;5067945;28;21310;-91
2024/01/05 12:03:40;;;;;;;3.20;3.00;;;11.00;99.90;;;;;;5031040;28;20052;-90
2024/01/05 12:06:09;;;;;;;3.17;2.97;;;11.00;99.90;;;;;;5035588;28;20037;-91
2024/01/05 12:08:35;;;;;;;3.17;2.97;;;10.90;99.90;;;;;;5046614;28;20055;-92
2024/01/05 12:11:03;;;;;;;3.38;3.17;;;10.80;99.90;;;;;;5034155;28;20062;-90
2024/01/05 12:13:32;;;;;;;3.10;2.90;;;10.70;99.90;;;;;;5053648;28;20102;-92
2024/01/05 12:16:05;;;;;;;2.75;2.65;;;10.70;99.90;;;;;;5052852;28;20730;-90
2024/01/05 12:18:32;;;;;;;2.95;2.75;;;10.70;99.90;;;;;;5034238;28;20057;-89
2024/01/05 12:21:02;;;;;;;2.65;2.55;;;10.70;99.90;;;;;;5054041;28;20072;-90
2024/01/05 12:23:30;;;;;;;2.78;2.60;;;10.60;99.90;;;;;;5050666;28;20048;-90
2024/01/05 12:26:06;;;;;;;2.30;2.20;;;10.60;99.90;;;;;;5038499;28;20044;-94
2024/01/05 12:28:33;;;;;;;2.80;2.60;;;10.50;99.90;;;;;;5039713;28;20043;-91
2024/01/05 12:31:01;;;;;;;2.30;2.20;;;10.40;99.90;;;;;;5038313;28;20263;-91
2024/01/05 12:33:28;;;;;;;2.83;2.63;;;10.50;99.90;;;;;;5035942;28;20045;-89
2024/01/05 12:35:55;;;;;;;2.28;2.17;;;10.30;99.90;;;;;;5050627;28;20135;-88
2024/01/05 12:38:25;;;;;;;2.30;2.20;;;10.20;99.90;;;;;;5049054;28;20765;-91
2024/01/05 12:41:11;;;;;;;2.35;2.25;;;10.30;99.90;;;;;;5046218;28;20044;-90
2024/01/05 12:43:43;;;;;;;2.08;1.98;;;10.20;99.90;;;;;;5033932;28;20062;-90
2024/01/05 12:46:09;;;;;;;2.20;2.10;;;10.20;99.90;;;;;;5033539;28;20040;-91
2024/01/05 12:48:35;;;;;;;2.20;2.10;;;10.10;99.90;;;;;;5050675;28;20117;-90
2024/01/05 12:51:08;;;;;;;2.10;2.00;;;10.30;99.90;;;;;;5035882;28;20051;-90
2024/01/05 12:53:35;;;;;;;2.20;2.10;;;10.20;99.90;;;;;;5035452;28;20048;-89